Unzile Ana — TCA4156 — position and weather

sailwx.info

Track history (hours):
 
Tides and Currents Weather Stations Pressure Air Temp Water Temp Dewpoint Dewpoint Depression Visibility Wind Speed Wind Dir Waves Ship Positions

Unzile Ana

Last reported at 2017-Dec-11 14:09 UTC. Time now 2017-Dec-11 17:19 UTC.
Position N 45°28' E 036°51'.

Length 96 m; draft 3.2 m.

Type: Cargo ship. MMSI: 271044531.

Date/timePositionNaut miles runAvg speedWind from/ knotsBaromVisibWave heightAir tempDewpointWater temp
2017-Dec-11 14:09N 45°28' E 036°51'2 9.8
2017-Dec-11 13:59N 45°28' E 036°48'5 9.9
2017-Dec-11 13:30N 45°27' E 036°42'5 9.7
2017-Dec-11 13:00N 45°22' E 036°40'4 7.9
2017-Dec-11 12:30N 45°20' E 036°36'4 8.8
2017-Dec-11 12:00N 45°18' E 036°30'4 8.0
2017-Dec-11 11:30N 45°14' E 036°29'0 0.4
2017-Dec-11 10:58N 45°14' E 036°30'0 0.0
2017-Dec-11 10:22N 45°14' E 036°30'0 0.0
2017-Dec-11 09:55N 45°14' E 036°30'0 0.0
2017-Dec-11 09:25N 45°14' E 036°30'0 0.1
2017-Dec-11 08:58N 45°14' E 036°30'0 0.0
2017-Dec-11 08:25N 45°14' E 036°30'0 0.0
2017-Dec-11 07:58N 45°14' E 036°30'0 0.0
2017-Dec-11 07:28N 45°14' E 036°30'0 0.0
2017-Dec-11 06:52N 45°14' E 036°30'0 0.0
2017-Dec-11 06:28N 45°14' E 036°30'0 0.0
2017-Dec-11 05:58N 45°14' E 036°30'0 0.0
2017-Dec-11 05:28N 45°14' E 036°30'0 0.0
2017-Dec-11 04:58N 45°14' E 036°30'0 0.0
2017-Dec-11 04:28N 45°14' E 036°30'0 0.1
2017-Dec-11 03:58N 45°14' E 036°30'0 0.0
2017-Dec-11 03:28N 45°14' E 036°30'0 0.0
2017-Dec-11 02:58N 45°14' E 036°30'0 0.0
2017-Dec-11 02:28N 45°14' E 036°30'0 0.0
2017-Dec-11 01:58N 45°14' E 036°30'0 0.0
2017-Dec-11 01:28N 45°14' E 036°30'0 0.0
2017-Dec-11 00:58N 45°14' E 036°30'0 0.0
2017-Dec-11 00:19N 45°14' E 036°30'0 0.0
2017-Dec-10 23:58N 45°14' E 036°30'0 0.0
2017-Dec-10 23:28N 45°14' E 036°30'0 0.0
2017-Dec-10 22:58N 45°14' E 036°30'0 0.0
2017-Dec-10 22:25N 45°14' E 036°30'0 0.0
2017-Dec-10 21:58N 45°14' E 036°30'0 0.0
2017-Dec-10 21:28N 45°14' E 036°30'0 0.0
2017-Dec-10 20:58N 45°14' E 036°30'0 0.1
2017-Dec-10 20:25N 45°14' E 036°30'0 0.0
2017-Dec-10 19:55N 45°14' E 036°30'0 0.1
2017-Dec-10 19:28N 45°14' E 036°30'0 0.0
2017-Dec-10 18:58N 45°14' E 036°30'0 0.0
2017-Dec-10 18:28N 45°14' E 036°30'0 0.0
2017-Dec-10 17:58N 45°14' E 036°30'0 0.0
2017-Dec-10 17:25N 45°14' E 036°30'0 0.0
2017-Dec-10 16:37N 45°14' E 036°30'0 0.1
2017-Dec-10 16:28N 45°14' E 036°30'0 0.1
2017-Dec-10 16:01N 45°14' E 036°30'0 0.0
2017-Dec-10 15:30N 45°14' E 036°30'0 0.0
2017-Dec-10 15:00N 45°14' E 036°30'0 0.0
2017-Dec-10 14:30N 45°14' E 036°30'0 0.0
2017-Dec-10 14:00N 45°14' E 036°30'0 0.0
2017-Dec-10 13:27N 45°14' E 036°30'0 0.0
2017-Dec-10 13:00N 45°14' E 036°30'0 0.0
2017-Dec-10 12:30N 45°14' E 036°30'0 0.0
2017-Dec-10 11:57N 45°14' E 036°30'0 0.0
2017-Dec-10 11:27N 45°14' E 036°30'0 0.0
2017-Dec-10 10:57N 45°14' E 036°30'0 0.0
2017-Dec-10 10:30N 45°14' E 036°30'0 0.0
2017-Dec-10 10:00N 45°14' E 036°30'0 0.0
2017-Dec-10 09:30N 45°14' E 036°30'0 0.0
2017-Dec-10 09:00N 45°14' E 036°30'0 0.7
2017-Dec-10 08:30N 45°15' E 036°29'0 0.8
2017-Dec-10 07:58N 45°14' E 036°30'0 0.0
2017-Dec-10 07:22N 45°14' E 036°30'0 0.0
2017-Dec-10 06:58N 45°14' E 036°30'0 0.0
2017-Dec-10 06:28N 45°14' E 036°30'0 0.0
2017-Dec-10 05:58N 45°14' E 036°30'0 0.0
2017-Dec-10 05:28N 45°14' E 036°30'0 0.0
2017-Dec-10 04:58N 45°14' E 036°30'0 0.0
2017-Dec-10 04:28N 45°14' E 036°30'0 0.0
2017-Dec-10 03:52N 45°14' E 036°30'0 0.0
2017-Dec-10 03:28N 45°14' E 036°30'0 0.0
2017-Dec-10 02:58N 45°14' E 036°30'0 0.0
2017-Dec-10 02:28N 45°14' E 036°30'0 0.0
2017-Dec-10 01:58N 45°14' E 036°30'0 0.0
2017-Dec-10 01:28N 45°14' E 036°30'0 0.0
2017-Dec-10 00:52N 45°14' E 036°30'0 0.0
2017-Dec-10 00:25N 45°14' E 036°30'0 0.0
2017-Dec-09 23:49N 45°14' E 036°30'0 0.0
2017-Dec-09 23:28N 45°14' E 036°30'0 0.0
2017-Dec-09 22:58N 45°14' E 036°30'0 0.0
2017-Dec-09 22:25N 45°14' E 036°30'0 0.0
2017-Dec-09 22:01N 45°14' E 036°30'0 0.0
2017-Dec-09 21:30N 45°14' E 036°30'0 0.0
2017-Dec-09 21:00N 45°14' E 036°30'0 0.0
2017-Dec-09 20:27N 45°14' E 036°30'0 0.0
2017-Dec-09 19:54N 45°14' E 036°30'0 0.0
2017-Dec-09 19:30N 45°14' E 036°30'0 0.0
2017-Dec-09 19:00N 45°14' E 036°30'0 0.0
2017-Dec-09 18:24N 45°14' E 036°30'0 0.0
2017-Dec-09 18:00N 45°14' E 036°30'0 0.0
2017-Dec-09 17:30N 45°14' E 036°30'0 0.0
2017-Dec-09 16:57N 45°14' E 036°30'0 0.0
2017-Dec-09 16:30N 45°14' E 036°30'0 0.0
2017-Dec-09 15:57N 45°14' E 036°30'0 0.0
2017-Dec-09 15:30N 45°14' E 036°30'0 0.0
2017-Dec-09 15:00N 45°14' E 036°30'0 0.0
2017-Dec-09 14:30N 45°14' E 036°30'0 0.0
2017-Dec-09 14:00N 45°14' E 036°30'0 0.0
2017-Dec-09 13:30N 45°14' E 036°30'0 0.0
2017-Dec-09 13:00N 45°14' E 036°30'0 0.0
2017-Dec-09 12:30N 45°14' E 036°30'1 1.8
2017-Dec-09 12:00N 45°14' E 036°29'4 8.4
2017-Dec-09 11:29N 45°09' E 036°29'  
Track history (hours):
 
Tides and Currents Weather Stations Pressure Air Temp Water Temp Dewpoint Dewpoint Depression Visibility Wind Speed Wind Dir Waves Ship Positions

Unzile Ana

Last reported at 2017-Dec-11 14:09 UTC. Time now 2017-Dec-11 17:19 UTC.
Position N 45°28' E 036°51'.

Length 96 m; draft 3.2 m.

Type: Cargo ship. MMSI: 271044531.

Date/timePositionNaut miles runAvg speedWind from/ knotsBaromVisibWave heightAir tempDewpointWater temp
2017-Dec-11 14:09N 45°28' E 036°51'2 9.8
2017-Dec-11 13:59N 45°28' E 036°48'5 9.9
2017-Dec-11 13:30N 45°27' E 036°42'5 9.7
2017-Dec-11 13:00N 45°22' E 036°40'4 7.9
2017-Dec-11 12:30N 45°20' E 036°36'4 8.8
2017-Dec-11 12:00N 45°18' E 036°30'4 8.0
2017-Dec-11 11:30N 45°14' E 036°29'0 0.4
2017-Dec-11 10:58N 45°14' E 036°30'0 0.0
2017-Dec-11 10:22N 45°14' E 036°30'0 0.0
2017-Dec-11 09:55N 45°14' E 036°30'0 0.0
2017-Dec-11 09:25N 45°14' E 036°30'0 0.1
2017-Dec-11 08:58N 45°14' E 036°30'0 0.0
2017-Dec-11 08:25N 45°14' E 036°30'0 0.0
2017-Dec-11 07:58N 45°14' E 036°30'0 0.0
2017-Dec-11 07:28N 45°14' E 036°30'0 0.0
2017-Dec-11 06:52N 45°14' E 036°30'0 0.0
2017-Dec-11 06:28N 45°14' E 036°30'0 0.0
2017-Dec-11 05:58N 45°14' E 036°30'0 0.0
2017-Dec-11 05:28N 45°14' E 036°30'0 0.0
2017-Dec-11 04:58N 45°14' E 036°30'0 0.0
2017-Dec-11 04:28N 45°14' E 036°30'0 0.1
2017-Dec-11 03:58N 45°14' E 036°30'0 0.0
2017-Dec-11 03:28N 45°14' E 036°30'0 0.0
2017-Dec-11 02:58N 45°14' E 036°30'0 0.0
2017-Dec-11 02:28N 45°14' E 036°30'0 0.0
2017-Dec-11 01:58N 45°14' E 036°30'0 0.0
2017-Dec-11 01:28N 45°14' E 036°30'0 0.0
2017-Dec-11 00:58N 45°14' E 036°30'0 0.0
2017-Dec-11 00:19N 45°14' E 036°30'0 0.0
2017-Dec-10 23:58N 45°14' E 036°30'0 0.0
2017-Dec-10 23:28N 45°14' E 036°30'0 0.0
2017-Dec-10 22:58N 45°14' E 036°30'0 0.0
2017-Dec-10 22:25N 45°14' E 036°30'0 0.0
2017-Dec-10 21:58N 45°14' E 036°30'0 0.0
2017-Dec-10 21:28N 45°14' E 036°30'0 0.0
2017-Dec-10 20:58N 45°14' E 036°30'0 0.1
2017-Dec-10 20:25N 45°14' E 036°30'0 0.0
2017-Dec-10 19:55N 45°14' E 036°30'0 0.1
2017-Dec-10 19:28N 45°14' E 036°30'0 0.0
2017-Dec-10 18:58N 45°14' E 036°30'0 0.0
2017-Dec-10 18:28N 45°14' E 036°30'0 0.0
2017-Dec-10 17:58N 45°14' E 036°30'0 0.0
2017-Dec-10 17:25N 45°14' E 036°30'0 0.0
2017-Dec-10 16:37N 45°14' E 036°30'0 0.1
2017-Dec-10 16:28N 45°14' E 036°30'0 0.1
2017-Dec-10 16:01N 45°14' E 036°30'0 0.0
2017-Dec-10 15:30N 45°14' E 036°30'0 0.0
2017-Dec-10 15:00N 45°14' E 036°30'0 0.0
2017-Dec-10 14:30N 45°14' E 036°30'0 0.0
2017-Dec-10 14:00N 45°14' E 036°30'0 0.0
2017-Dec-10 13:27N 45°14' E 036°30'0 0.0
2017-Dec-10 13:00N 45°14' E 036°30'0 0.0
2017-Dec-10 12:30N 45°14' E 036°30'0 0.0
2017-Dec-10 11:57N 45°14' E 036°30'0 0.0
2017-Dec-10 11:27N 45°14' E 036°30'0 0.0
2017-Dec-10 10:57N 45°14' E 036°30'0 0.0
2017-Dec-10 10:30N 45°14' E 036°30'0 0.0
2017-Dec-10 10:00N 45°14' E 036°30'0 0.0
2017-Dec-10 09:30N 45°14' E 036°30'0 0.0
2017-Dec-10 09:00N 45°14' E 036°30'0 0.7
2017-Dec-10 08:30N 45°15' E 036°29'0 0.8
2017-Dec-10 07:58N 45°14' E 036°30'0 0.0
2017-Dec-10 07:22N 45°14' E 036°30'0 0.0
2017-Dec-10 06:58N 45°14' E 036°30'0 0.0
2017-Dec-10 06:28N 45°14' E 036°30'0 0.0
2017-Dec-10 05:58N 45°14' E 036°30'0 0.0
2017-Dec-10 05:28N 45°14' E 036°30'0 0.0
2017-Dec-10 04:58N 45°14' E 036°30'0 0.0
2017-Dec-10 04:28N 45°14' E 036°30'0 0.0
2017-Dec-10 03:52N 45°14' E 036°30'0 0.0
2017-Dec-10 03:28N 45°14' E 036°30'0 0.0
2017-Dec-10 02:58N 45°14' E 036°30'0 0.0
2017-Dec-10 02:28N 45°14' E 036°30'0 0.0
2017-Dec-10 01:58N 45°14' E 036°30'0 0.0
2017-Dec-10 01:28N 45°14' E 036°30'0 0.0
2017-Dec-10 00:52N 45°14' E 036°30'0 0.0
2017-Dec-10 00:25N 45°14' E 036°30'0 0.0
2017-Dec-09 23:49N 45°14' E 036°30'0 0.0
2017-Dec-09 23:28N 45°14' E 036°30'0 0.0
2017-Dec-09 22:58N 45°14' E 036°30'0 0.0
2017-Dec-09 22:25N 45°14' E 036°30'0 0.0
2017-Dec-09 22:01N 45°14' E 036°30'0 0.0
2017-Dec-09 21:30N 45°14' E 036°30'0 0.0
2017-Dec-09 21:00N 45°14' E 036°30'0 0.0
2017-Dec-09 20:27N 45°14' E 036°30'0 0.0
2017-Dec-09 19:54N 45°14' E 036°30'0 0.0
2017-Dec-09 19:30N 45°14' E 036°30'0 0.0
2017-Dec-09 19:00N 45°14' E 036°30'0 0.0
2017-Dec-09 18:24N 45°14' E 036°30'0 0.0
2017-Dec-09 18:00N 45°14' E 036°30'0 0.0
2017-Dec-09 17:30N 45°14' E 036°30'0 0.0
2017-Dec-09 16:57N 45°14' E 036°30'0 0.0
2017-Dec-09 16:30N 45°14' E 036°30'0 0.0
2017-Dec-09 15:57N 45°14' E 036°30'0 0.0
2017-Dec-09 15:30N 45°14' E 036°30'0 0.0
2017-Dec-09 15:00N 45°14' E 036°30'0 0.0
2017-Dec-09 14:30N 45°14' E 036°30'0 0.0
2017-Dec-09 14:00N 45°14' E 036°30'0 0.0
2017-Dec-09 13:30N 45°14' E 036°30'0 0.0
2017-Dec-09 13:00N 45°14' E 036°30'0 0.0
2017-Dec-09 12:30N 45°14' E 036°30'1 1.8
2017-Dec-09 12:00N 45°14' E 036°29'4 8.4
2017-Dec-09 11:29N 45°09' E 036°29'  

Dump ship's entire track history